createdAt,value
2022-10-28T00:03:01.755Z,13.70
2022-10-28T00:08:02.584Z,13.61
2022-10-28T00:13:03.411Z,13.53
2022-10-28T00:18:04.186Z,13.55
2022-10-28T00:23:04.917Z,13.58
2022-10-28T00:28:05.653Z,13.58
2022-10-28T00:33:06.392Z,13.68
2022-10-28T00:38:07.139Z,13.68
2022-10-28T00:43:10.965Z,13.70
2022-10-28T00:48:11.900Z,13.71
2022-10-28T00:53:18.184Z,13.73
2022-10-28T00:58:22.215Z,13.55
2022-10-28T01:03:22.977Z,13.50
2022-10-28T01:08:23.995Z,13.50
2022-10-28T01:14:17.909Z,13.53
2022-10-28T01:21:08.530Z,13.80
2022-10-28T01:26:41.427Z,13.82
2022-10-28T01:31:56.630Z,13.79
2022-10-28T01:37:08.635Z,13.73
2022-10-28T01:43:05.605Z,13.79
2022-10-28T01:48:16.297Z,13.64
2022-10-28T01:53:22.148Z,13.79
2022-10-28T01:58:27.617Z,13.59
2022-10-28T02:03:28.345Z,13.87
2022-10-28T02:11:18.457Z,13.81
2022-10-28T02:16:35.508Z,13.93
2022-10-28T02:21:52.022Z,14.13
2022-10-28T02:27:07.130Z,14.11
2022-10-28T02:32:14.479Z,14.16
2022-10-28T02:37:22.022Z,14.13
2022-10-28T02:42:34.778Z,14.25
2022-10-28T02:47:38.815Z,14.30
2022-10-28T02:52:44.649Z,14.21
2022-10-28T02:57:49.033Z,14.13
2022-10-28T03:02:50.216Z,14.06
2022-10-28T03:07:51.232Z,13.99
2022-10-28T03:12:52.245Z,13.90
2022-10-28T03:17:53.411Z,13.89
2022-10-28T03:22:54.698Z,13.81
2022-10-28T03:27:55.809Z,13.69
2022-10-28T03:32:56.888Z,13.59
2022-10-28T03:37:57.722Z,13.42
2022-10-28T03:42:58.433Z,13.27
2022-10-28T03:47:59.222Z,13.27
2022-10-28T03:53:00.053Z,13.09
2022-10-28T03:58:01.655Z,12.92
2022-10-28T04:03:02.384Z,12.87
2022-10-28T04:08:03.773Z,12.87
2022-10-28T04:13:05.518Z,12.78
2022-10-28T04:18:06.583Z,12.69
2022-10-28T04:23:10.219Z,12.58
2022-10-28T04:28:11.136Z,12.42
2022-10-28T04:33:12.140Z,12.37
2022-10-28T04:38:13.566Z,12.47
2022-10-28T04:43:15.259Z,12.38
2022-10-28T04:48:15.975Z,12.33
2022-10-28T04:53:16.792Z,12.27
2022-10-28T04:58:17.554Z,12.36
2022-10-28T05:03:18.330Z,12.10
2022-10-28T05:08:19.036Z,12.11
2022-10-28T05:13:19.984Z,12.19
2022-10-28T05:18:20.702Z,12.17
2022-10-28T05:23:24.774Z,12.06
2022-10-28T05:28:29.403Z,12.01
2022-10-28T05:33:30.169Z,12.12
2022-10-28T05:38:30.909Z,12.05
2022-10-28T05:43:31.620Z,12.14
2022-10-28T05:48:32.383Z,12.12
2022-10-28T05:53:33.300Z,12.10
2022-10-28T05:58:34.173Z,12.32
2022-10-28T06:03:35.256Z,12.44
2022-10-28T06:08:36.116Z,12.37
2022-10-28T06:13:35.365Z,12.16
2022-10-28T06:18:36.122Z,12.00
2022-10-28T06:23:37.204Z,12.12
2022-10-28T06:28:37.917Z,12.12
2022-10-28T06:33:38.714Z,12.13
2022-10-28T06:38:39.579Z,12.24
2022-10-28T06:43:40.469Z,12.14
2022-10-28T06:48:42.692Z,12.12
2022-10-28T06:53:47.458Z,12.05
2022-10-28T06:58:53.051Z,12.13
2022-10-28T07:03:53.809Z,12.32
2022-10-28T07:08:54.569Z,12.48
2022-10-28T07:13:55.305Z,12.55
2022-10-28T07:18:56.148Z,12.62
2022-10-28T07:23:57.278Z,12.71
2022-10-28T07:28:58.017Z,12.84
2022-10-28T07:33:58.817Z,12.80
2022-10-28T07:38:59.579Z,12.94
2022-10-28T07:44:00.321Z,12.93
2022-10-28T07:49:01.217Z,13.03
2022-10-28T07:54:02.041Z,13.19
2022-10-28T07:59:02.806Z,13.20
2022-10-28T08:04:03.614Z,13.37
2022-10-28T08:09:04.407Z,13.48
2022-10-28T08:14:05.145Z,13.68
2022-10-28T08:19:07.852Z,13.86
2022-10-28T08:24:09.393Z,13.93
2022-10-28T08:29:11.403Z,14.28
2022-10-28T08:34:12.219Z,14.50
2022-10-28T08:39:13.133Z,14.75
2022-10-28T08:44:41.281Z,15.29
2022-10-28T08:49:48.520Z,15.73
2022-10-28T08:55:00.908Z,16.25
2022-10-28T09:00:05.043Z,16.70
2022-10-28T09:05:25.967Z,16.79
2022-10-28T09:11:35.559Z,16.34
2022-10-28T09:16:46.329Z,16.58
2022-10-28T09:21:52.385Z,16.61
2022-10-28T09:29:11.261Z,16.67
2022-10-28T09:35:56.898Z,17.31
2022-10-28T09:41:11.254Z,17.27
2022-10-28T09:46:15.266Z,17.87
2022-10-28T09:52:15.213Z,18.68
2022-10-28T09:57:17.823Z,19.15
2022-10-28T10:02:31.103Z,19.23
2022-10-28T10:07:38.544Z,19.47
2022-10-28T10:12:40.068Z,19.03
2022-10-28T10:17:44.468Z,18.99
2022-10-28T10:22:47.476Z,19.16
2022-10-28T10:28:21.695Z,19.15
2022-10-28T10:33:30.543Z,19.39
2022-10-28T10:38:32.066Z,19.81
2022-10-28T10:43:34.781Z,20.31
2022-10-28T10:48:36.559Z,20.54
2022-10-28T10:53:39.151Z,21.01
2022-10-28T10:58:48.708Z,21.17
2022-10-28T11:09:34.346Z,20.78
2022-10-28T11:14:35.141Z,20.62
2022-10-28T11:19:37.502Z,20.56
2022-10-28T11:26:34.549Z,20.79
2022-10-28T11:34:45.827Z,20.65
2022-10-28T11:40:56.654Z,20.14
2022-10-28T11:46:15.337Z,20.37
2022-10-28T11:51:30.463Z,20.38
2022-10-28T11:56:49.236Z,20.61
2022-10-28T12:02:37.738Z,20.55
2022-10-28T12:08:06.678Z,20.68
2022-10-28T12:13:36.089Z,20.93
2022-10-28T12:20:04.495Z,21.04
2022-10-28T12:25:12.468Z,20.61
2022-10-28T12:30:35.486Z,20.52
2022-10-28T12:35:45.892Z,20.28
2022-10-28T12:41:03.572Z,20.56
2022-10-28T12:46:08.952Z,20.96
2022-10-28T12:51:15.769Z,21.37
2022-10-28T12:56:32.668Z,21.52
2022-10-28T13:01:34.291Z,21.60
2022-10-28T13:09:01.752Z,21.91
2022-10-28T13:14:50.352Z,21.72
2022-10-28T13:22:25.271Z,22.07
2022-10-28T13:27:26.987Z,22.16
2022-10-28T13:32:38.403Z,22.38
2022-10-28T13:37:44.733Z,21.92
2022-10-28T13:42:48.123Z,21.95
2022-10-28T13:47:48.894Z,21.81
2022-10-28T13:53:37.860Z,21.99
2022-10-28T13:58:52.762Z,21.61
2022-10-28T14:03:53.530Z,21.35
2022-10-28T14:08:55.554Z,20.86
2022-10-28T14:14:00.728Z,20.73
2022-10-28T14:19:22.972Z,20.53
2022-10-28T14:24:41.526Z,20.44
2022-10-28T14:29:48.465Z,20.34
2022-10-28T14:34:49.471Z,20.26
2022-10-28T14:40:19.206Z,20.24
2022-10-28T14:45:32.042Z,20.09
2022-10-28T14:50:55.117Z,20.01
2022-10-28T14:56:00.275Z,20.02
2022-10-28T15:01:45.588Z,19.94
2022-10-28T15:06:50.398Z,19.90
2022-10-28T15:12:05.388Z,19.67
2022-10-28T15:17:19.569Z,19.52
2022-10-28T15:22:25.325Z,19.36
2022-10-28T15:27:31.805Z,19.23
2022-10-28T15:32:34.721Z,19.18
2022-10-28T15:37:35.821Z,19.00
2022-10-28T15:42:44.491Z,18.88
2022-10-28T15:47:46.911Z,18.71
2022-10-28T15:52:49.496Z,18.52
2022-10-28T15:57:56.573Z,18.36
2022-10-28T16:03:07.682Z,18.14
2022-10-28T16:08:22.479Z,18.04
2022-10-28T16:16:14.766Z,17.88
2022-10-28T16:21:19.578Z,17.48
2022-10-28T16:26:20.298Z,17.39
2022-10-28T16:31:24.279Z,17.33
2022-10-28T16:36:27.932Z,17.13
2022-10-28T16:41:28.643Z,17.04
2022-10-28T16:46:29.837Z,17.17
2022-10-28T16:51:30.548Z,16.96
2022-10-28T16:56:31.325Z,16.82
2022-10-28T17:01:32.164Z,16.77
2022-10-28T17:06:33.024Z,16.66
2022-10-28T17:11:33.865Z,16.64
2022-10-28T17:16:38.044Z,16.65
2022-10-28T17:21:42.192Z,16.84
2022-10-28T17:26:45.284Z,16.87
2022-10-28T17:31:46.004Z,16.88
2022-10-28T17:36:46.791Z,16.62
2022-10-28T17:41:47.742Z,16.55
2022-10-28T17:46:49.488Z,16.56
2022-10-28T17:51:50.909Z,16.61
2022-10-28T17:56:51.652Z,16.83
2022-10-28T18:01:53.628Z,17.04
2022-10-28T18:06:56.600Z,17.09
2022-10-28T18:11:57.819Z,17.21
2022-10-28T18:16:58.932Z,17.30
2022-10-28T18:21:59.647Z,17.37
2022-10-28T18:31:56.058Z,17.33
2022-10-28T18:36:56.861Z,17.19
2022-10-28T18:41:57.593Z,17.18
2022-10-28T18:46:58.328Z,17.03
2022-10-28T18:51:59.274Z,16.96
2022-10-28T18:56:59.958Z,17.00
2022-10-28T19:02:00.918Z,17.47
2022-10-28T19:07:02.802Z,17.73
2022-10-28T19:12:05.202Z,17.98
2022-10-28T19:17:06.039Z,17.81
2022-10-28T19:22:07.622Z,17.64
2022-10-28T19:27:08.763Z,17.43
2022-10-28T19:32:09.509Z,17.10
2022-10-28T19:37:10.231Z,16.84
2022-10-28T19:42:11.022Z,16.79
2022-10-28T19:47:12.381Z,16.73
2022-10-28T19:52:13.130Z,16.70
2022-10-28T20:02:14.857Z,16.65
2022-10-28T20:07:15.760Z,16.60
2022-10-28T20:12:16.893Z,16.70
2022-10-28T20:17:17.731Z,16.89
2022-10-28T20:22:18.531Z,16.98
2022-10-28T20:27:19.253Z,17.08
2022-10-28T20:32:21.603Z,17.10
2022-10-28T20:37:22.325Z,17.16
2022-10-28T20:42:23.073Z,17.09
2022-10-28T20:57:25.617Z,16.32
2022-10-28T21:02:26.550Z,16.02
2022-10-28T21:07:27.408Z,15.98
2022-10-28T21:12:28.150Z,16.00
2022-10-28T21:17:28.936Z,15.80
2022-10-28T21:22:29.692Z,15.93
2022-10-28T21:27:30.413Z,16.05
2022-10-28T21:32:31.504Z,16.07
2022-10-28T21:37:33.192Z,16.15
2022-10-28T21:42:33.914Z,16.23
2022-10-28T21:47:34.726Z,16.29
2022-10-28T21:52:35.439Z,16.34
2022-10-28T21:57:36.349Z,16.49
2022-10-28T22:02:37.258Z,16.53
2022-10-28T22:07:38.241Z,16.51
2022-10-28T22:12:38.954Z,16.62
2022-10-28T22:17:39.784Z,16.43
2022-10-28T22:22:40.556Z,16.10
2022-10-28T22:27:41.315Z,15.91
2022-10-28T22:32:42.025Z,15.75
2022-10-28T22:37:42.765Z,15.66
2022-10-28T22:42:43.495Z,15.46
2022-10-28T22:47:44.329Z,15.26
2022-10-28T22:52:45.036Z,15.21
2022-10-28T22:57:46.076Z,15.18
2022-10-28T23:02:46.908Z,15.10
2022-10-28T23:07:48.073Z,15.01
2022-10-28T23:12:55.269Z,15.02
2022-10-28T23:17:56.788Z,15.05
2022-10-28T23:22:57.804Z,14.89
2022-10-28T23:27:59.018Z,14.85
2022-10-28T23:33:00.010Z,14.81
2022-10-28T23:38:02.110Z,14.86
2022-10-28T23:43:03.220Z,14.96
2022-10-28T23:48:04.358Z,14.87
2022-10-28T23:53:05.068Z,15.01
2022-10-28T23:58:06.408Z,14.93
